createdAt,value
2023-01-11T00:01:43.251Z,69
2023-01-11T00:11:43.044Z,99
2023-01-11T00:21:42.957Z,99
2023-01-11T00:31:42.922Z,99
2023-01-11T00:41:42.930Z,99
2023-01-11T00:51:42.781Z,99
2023-01-11T01:01:42.789Z,99
2023-01-11T01:11:42.618Z,99
2023-01-11T01:21:42.564Z,90
2023-01-11T01:31:42.460Z,87
2023-01-11T01:41:42.386Z,99
2023-01-11T01:51:42.359Z,99
2023-01-11T02:01:42.361Z,99
2023-01-11T02:11:42.201Z,99
2023-01-11T02:21:42.096Z,99
2023-01-11T02:31:42.184Z,99
2023-01-11T02:41:41.992Z,99
2023-01-11T02:51:41.919Z,99
2023-01-11T03:01:41.844Z,99
2023-01-11T03:11:41.756Z,99
2023-01-11T03:21:41.707Z,1
2023-01-11T03:31:41.658Z,1
2023-01-11T03:41:41.571Z,1
2023-01-11T03:51:41.462Z,1
2023-01-11T04:01:41.424Z,1
2023-01-11T04:11:41.330Z,1
2023-01-11T04:21:41.337Z,1
2023-01-11T04:31:41.210Z,1
2023-01-11T04:41:41.106Z,1
2023-01-11T04:51:41.064Z,1
2023-01-11T05:01:40.967Z,1
2023-01-11T05:11:40.913Z,1
2023-01-11T05:21:40.828Z,1
2023-01-11T05:31:40.931Z,1
2023-01-11T05:41:40.666Z,1
2023-01-11T05:51:40.614Z,1
2023-01-11T06:01:40.684Z,1
2023-01-11T06:11:40.485Z,1
2023-01-11T06:21:40.399Z,1
2023-01-11T06:31:40.364Z,1
2023-01-11T06:41:40.263Z,1
2023-01-11T06:51:40.420Z,1
2023-01-11T07:01:40.301Z,1
2023-01-11T07:11:40.077Z,1
2023-01-11T07:21:40.017Z,1
2023-01-11T07:31:40.102Z,1
2023-01-11T07:41:39.888Z,1
2023-01-11T07:51:39.808Z,1
2023-01-11T08:01:39.746Z,1
2023-01-11T08:11:39.650Z,1
2023-01-11T08:12:58.870Z,1
2023-01-11T08:22:58.499Z,1
2023-01-11T08:32:58.435Z,1
2023-01-11T08:42:58.356Z,1
2023-01-11T08:52:58.281Z,1
2023-01-11T09:02:58.247Z,1
2023-01-11T09:12:58.155Z,1
2023-01-11T09:22:58.080Z,1
2023-01-11T09:32:58.039Z,1
2023-01-11T09:42:57.969Z,1
2023-01-11T09:52:57.993Z,1
2023-01-11T10:02:57.826Z,1
2023-01-11T10:22:57.688Z,1
2023-01-11T10:32:57.609Z,1
2023-01-11T10:42:57.533Z,1
2023-01-11T10:52:57.582Z,1
2023-01-11T11:02:57.387Z,1
2023-01-11T11:12:57.319Z,1
2023-01-11T11:22:57.227Z,1
2023-01-11T11:32:57.183Z,1
2023-01-11T11:42:57.105Z,1
2023-01-11T12:02:57.343Z,1
2023-01-11T12:12:56.939Z,1
2023-01-11T12:22:56.779Z,1
2023-01-11T12:32:56.732Z,1
2023-01-11T12:42:56.665Z,1
2023-01-11T12:52:56.581Z,1
2023-01-11T13:02:56.636Z,1
2023-01-11T13:12:56.451Z,1
2023-01-11T13:22:56.387Z,1
2023-01-11T13:32:56.315Z,1
2023-01-11T13:42:56.206Z,1
2023-01-11T13:52:56.153Z,1
2023-01-11T14:02:56.124Z,1
2023-01-11T14:12:56.024Z,1
2023-01-11T14:22:55.977Z,1
2023-01-11T14:32:55.880Z,1
2023-01-11T14:42:55.796Z,1
2023-01-11T14:52:55.720Z,1
2023-01-11T15:02:55.631Z,1
2023-01-11T15:12:55.564Z,1
2023-01-11T15:22:55.543Z,1
2023-01-11T15:32:55.484Z,1
2023-01-11T15:42:55.359Z,1
2023-01-11T16:02:55.246Z,1
2023-01-11T16:12:55.249Z,1
2023-01-11T16:22:55.160Z,1
2023-01-11T16:32:55.039Z,1
2023-01-11T16:42:54.987Z,1
2023-01-11T16:52:54.876Z,1
2023-01-11T17:02:54.792Z,1
2023-01-11T17:12:54.752Z,1
2023-01-11T17:22:54.674Z,1
2023-01-11T17:32:54.625Z,1
2023-01-11T17:42:54.507Z,1
2023-01-11T17:52:55.332Z,1
2023-01-11T18:02:54.400Z,1
2023-01-11T18:12:54.304Z,1
2023-01-11T18:22:54.273Z,1
2023-01-11T18:32:54.154Z,1
2023-01-11T18:42:54.131Z,1
2023-01-11T18:52:54.189Z,1
2023-01-11T19:02:53.992Z,1
2023-01-11T19:12:53.920Z,1
2023-01-11T19:22:53.817Z,1
2023-01-11T19:32:53.764Z,1
2023-01-11T19:42:53.676Z,1
2023-01-11T19:52:53.595Z,1
2023-01-11T20:02:53.738Z,1
2023-01-11T20:12:53.494Z,1
2023-01-11T20:22:53.535Z,1
2023-01-11T20:32:53.356Z,1
2023-01-11T20:42:53.278Z,1
2023-01-11T20:52:53.202Z,1
2023-01-11T21:02:53.498Z,1
2023-01-11T21:12:53.328Z,1
2023-01-11T21:22:53.306Z,1
2023-01-11T21:32:52.995Z,99
2023-01-11T21:42:52.875Z,99
2023-01-11T21:52:52.796Z,99
2023-01-11T22:02:52.715Z,99
2023-01-11T22:12:52.613Z,99
2023-01-11T22:22:52.612Z,99
2023-01-11T22:32:52.479Z,99
2023-01-11T22:42:52.458Z,99
2023-01-11T22:52:52.329Z,99
2023-01-11T23:02:52.543Z,99
2023-01-11T23:12:52.225Z,99
2023-01-11T23:22:52.133Z,82
2023-01-11T23:32:52.192Z,68
2023-01-11T23:42:52.032Z,55
2023-01-11T23:52:51.959Z,69
